sensor_id;sensor_type;location;lat;lon;timestamp;P1;durP1;ratioP1;P2;durP2;ratioP2
21120;SDS011;12519;43.318;21.898;2022-08-21T18:03:44;24.0;;;17.0;;
21120;SDS011;12519;43.318;21.898;2022-08-21T18:08:24;24.0;;;17.0;;
21120;SDS011;12519;43.318;21.898;2022-08-21T18:13:15;24.0;;;17.0;;
21120;SDS011;12519;43.318;21.898;2022-08-21T18:18:00;24.0;;;17.0;;
21120;SDS011;12519;43.318;21.898;2022-08-21T18:22:43;23.0;;;18.0;;
21120;SDS011;12519;43.318;21.898;2022-08-21T18:27:22;23.0;;;18.0;;
21120;SDS011;12519;43.318;21.898;2022-08-21T18:32:03;22.0;;;18.0;;
21120;SDS011;12519;43.318;21.898;2022-08-21T18:36:43;22.0;;;18.0;;
21120;SDS011;12519;43.318;21.898;2022-08-21T18:41:21;22.0;;;18.0;;
21120;SDS011;12519;43.318;21.898;2022-08-21T18:45:59;22.0;;;18.0;;
21120;SDS011;12519;43.318;21.898;2022-08-21T18:50:41;22.0;;;18.0;;
21120;SDS011;12519;43.318;21.898;2022-08-21T18:55:25;22.0;;;18.0;;
21120;SDS011;12519;43.318;21.898;2022-08-21T19:00:15;20.0;;;18.0;;
21120;SDS011;12519;43.318;21.898;2022-08-21T19:05:00;20.0;;;18.0;;
21120;SDS011;12519;43.318;21.898;2022-08-21T19:09:36;20.0;;;18.0;;
21120;SDS011;12519;43.318;21.898;2022-08-21T19:14:14;18.0;;;17.0;;
21120;SDS011;12519;43.318;21.898;2022-08-21T19:18:51;18.0;;;17.0;;
21120;SDS011;12519;43.318;21.898;2022-08-21T19:23:28;19.0;;;16.0;;
21120;SDS011;12519;43.318;21.898;2022-08-21T19:28:11;19.0;;;16.0;;
21120;SDS011;12519;43.318;21.898;2022-08-21T19:33:00;20.0;;;14.0;;
21120;SDS011;12519;43.318;21.898;2022-08-21T19:37:38;20.0;;;14.0;;
21120;SDS011;12519;43.318;21.898;2022-08-21T19:42:16;17.0;;;14.0;;
21120;SDS011;12519;43.318;21.898;2022-08-21T19:46:56;17.0;;;14.0;;
21120;SDS011;12519;43.318;21.898;2022-08-21T19:51:38;14.0;;;13.0;;
21120;SDS011;12519;43.318;21.898;2022-08-21T19:56:25;14.0;;;13.0;;
21120;SDS011;12519;43.318;21.898;2022-08-21T20:01:10;12.0;;;12.0;;
21120;SDS011;12519;43.318;21.898;2022-08-21T20:05:50;12.0;;;12.0;;
21120;SDS011;12519;43.318;21.898;2022-08-21T20:10:27;10.0;;;10.0;;
21120;SDS011;12519;43.318;21.898;2022-08-21T20:15:06;10.0;;;10.0;;
21120;SDS011;12519;43.318;21.898;2022-08-21T20:19:47;10.0;;;10.0;;
21120;SDS011;12519;43.318;21.898;2022-08-21T20:24:25;10.0;;;10.0;;
21120;SDS011;12519;43.318;21.898;2022-08-21T20:29:04;10.0;;;10.0;;
21120;SDS011;12519;43.318;21.898;2022-08-21T20:33:43;11.0;;;10.0;;
21120;SDS011;12519;43.318;21.898;2022-08-21T20:38:21;11.0;;;10.0;;
21120;SDS011;12519;43.318;21.898;2022-08-21T20:43:01;11.0;;;10.0;;
21120;SDS011;12519;43.318;21.898;2022-08-21T20:47:43;11.0;;;10.0;;
21120;SDS011;12519;43.318;21.898;2022-08-21T20:52:24;11.0;;;9.0;;
21120;SDS011;12519;43.318;21.898;2022-08-21T20:57:19;11.0;;;9.0;;
21120;SDS011;12519;43.318;21.898;2022-08-21T21:02:47;11.0;;;9.0;;
21120;SDS011;12519;43.318;21.898;2022-08-21T21:08:18;11.0;;;9.0;;
21120;SDS011;12519;43.318;21.898;2022-08-21T21:13:30;11.0;;;9.0;;
21120;SDS011;12519;43.318;21.898;2022-08-21T21:18:46;11.0;;;9.0;;
21120;SDS011;12519;43.318;21.898;2022-08-21T21:24:08;10.0;;;8.0;;
21120;SDS011;12519;43.318;21.898;2022-08-21T21:29:41;10.0;;;8.0;;
21120;SDS011;12519;43.318;21.898;2022-08-21T21:34:47;9.0;;;8.0;;
21120;SDS011;12519;43.318;21.898;2022-08-21T21:39:32;9.0;;;8.0;;
21120;SDS011;12519;43.318;21.898;2022-08-21T21:45:15;9.0;;;8.0;;
21120;SDS011;12519;43.318;21.898;2022-08-21T21:50:51;9.0;;;8.0;;
21120;SDS011;12519;43.318;21.898;2022-08-21T21:55:58;9.0;;;8.0;;
21120;SDS011;12519;43.318;21.898;2022-08-21T22:01:15;8.0;;;8.0;;
21120;SDS011;12519;43.318;21.898;2022-08-21T22:06:25;8.0;;;8.0;;
21120;SDS011;12519;43.318;21.898;2022-08-21T22:11:31;8.0;;;7.0;;
21120;SDS011;12519;43.318;21.898;2022-08-21T22:16:49;8.0;;;7.0;;
21120;SDS011;12519;43.318;21.898;2022-08-21T22:21:35;8.0;;;7.0;;
21120;SDS011;12519;43.318;21.898;2022-08-21T22:26:35;8.0;;;7.0;;
21120;SDS011;12519;43.318;21.898;2022-08-21T22:31:36;8.0;;;7.0;;
21120;SDS011;12519;43.318;21.898;2022-08-21T22:36:17;8.0;;;7.0;;
21120;SDS011;12519;43.318;21.898;2022-08-21T22:41:15;8.0;;;7.0;;
21120;SDS011;12519;43.318;21.898;2022-08-21T22:46:17;8.0;;;7.0;;
21120;SDS011;12519;43.318;21.898;2022-08-21T22:51:28;9.0;;;7.0;;
21120;SDS011;12519;43.318;21.898;2022-08-21T22:56:32;9.0;;;7.0;;
21120;SDS011;12519;43.318;21.898;2022-08-21T23:01:40;8.0;;;6.0;;
21120;SDS011;12519;43.318;21.898;2022-08-21T23:06:42;8.0;;;6.0;;
21120;SDS011;12519;43.318;21.898;2022-08-21T23:11:40;8.0;;;6.0;;
21120;SDS011;12519;43.318;21.898;2022-08-21T23:16:31;8.0;;;6.0;;
21120;SDS011;12519;43.318;21.898;2022-08-21T23:22:01;10.0;;;8.0;;
21120;SDS011;12519;43.318;21.898;2022-08-21T23:28:02;10.0;;;8.0;;
21120;SDS011;12519;43.318;21.898;2022-08-21T23:34:25;11.0;;;9.0;;
21120;SDS011;12519;43.318;21.898;2022-08-21T23:40:07;11.0;;;9.0;;
21120;SDS011;12519;43.318;21.898;2022-08-21T23:45:34;10.0;;;8.0;;
21120;SDS011;12519;43.318;21.898;2022-08-21T23:51:31;9.0;;;8.0;;
21120;SDS011;12519;43.318;21.898;2022-08-21T23:57:30;9.0;;;8.0;;
